PWSweather.com
Personal Weather Stations
Station Observations
KMICHEBO10
Cordwood Point, Lake Huron, Cheboygan, MI 49721

Cordwood Point, Lake HuronCheboygan, MI 49721

Lat: 45.663372, Lon: -84.3327789

Elevation: 584

Station Type: Davis Vantage Pro2 Wireless

http://www.lakehuronweather.org

Latest ConditionsUpdated 4:50:00 PM EDT Wednesday, Apr 24, 2019
Currently Today's Max Today's Min Today's Average
Temperature 49.1°F9.5°C 50.3°F10.2°C 29.7°F-1.3°C 38.3°F3.5°C
Dew Point 31.7°F-0.2°C 38.0°F3.3°C 28.3°F-2.1°C 32.8°F0.4°C
Winds 3.5 mph ENE5.6 kmh ENE 4.6 mph -7.4 kmh - - 1.1 mph 1.8 kmh
Wind Gusts 4.6 mph7.4 kmh 4.6 mph7.4 kmh - -
Humidity 51% 96% 51% 82%
Pressure 29.88 in1011.9 mb 30.02 in1016.6 mb 29.88 in1011.9 mb -
Hour Temp Dew Point Humidity Winds Wind Gusts Pressure Precip Precip Rate Daily Precip Total
04:50 PM 49.1°F9.5°C 31.7°F-0.2°C 51% 3.5 mph ENE5.6 kmh ENE 4.6 mph7.4 kmh 29.88 in1011.9 mb - 0.00 in0.0 mm 0.00 in0.0 mm
04:40 PM 49.6°F9.8°C 32.2°F0.1°C 51% 4.6 mph NE7.4 kmh NE 4.6 mph7.4 kmh 29.88 in1011.9 mb - 0.00 in0.0 mm 0.00 in0.0 mm
04:30 PM 50.2°F10.1°C 33.7°F0.9°C 53% 3.5 mph NE5.6 kmh NE 3.5 mph5.6 kmh 29.89 in1012.2 mb - 0.00 in0.0 mm 0.00 in0.0 mm
04:20 PM 50.3°F10.2°C 33.8°F1.0°C 53% 2.3 mph NE3.7 kmh NE 3.5 mph5.6 kmh 29.89 in1012.2 mb - 0.00 in0.0 mm 0.00 in0.0 mm
04:10 PM 49.4°F9.7°C 33.0°F0.6°C 53% 2.3 mph NE3.7 kmh NE 3.5 mph5.6 kmh 29.89 in1012.2 mb - 0.00 in0.0 mm 0.00 in0.0 mm
04:00 PM 48.9°F9.4°C 32.0°F0.0°C 52% 1.2 mph N1.9 kmh N 1.2 mph1.9 kmh 29.90 in1012.5 mb - 0.00 in0.0 mm 0.00 in0.0 mm
03:50 PM 48.4°F9.1°C 33.0°F0.6°C 55% 1.2 mph NNE1.9 kmh NNE 2.3 mph3.7 kmh 29.90 in1012.5 mb - 0.00 in0.0 mm 0.00 in0.0 mm
03:40 PM 48.4°F9.1°C 33.9°F1.1°C 57% 3.5 mph N5.6 kmh N 3.5 mph5.6 kmh 29.91 in1012.9 mb - 0.00 in0.0 mm 0.00 in0.0 mm
03:30 PM 48.6°F9.2°C 34.0°F1.1°C 57% 1.2 mph N1.9 kmh N 2.3 mph3.7 kmh 29.91 in1012.9 mb - 0.00 in0.0 mm 0.00 in0.0 mm
03:20 PM 48.2°F9.0°C 34.1°F1.2°C 58% 2.3 mph N3.7 kmh N 3.5 mph5.6 kmh 29.91 in1012.9 mb - 0.00 in0.0 mm 0.00 in0.0 mm
03:10 PM 46.5°F8.1°C 35.4°F1.9°C 65% Calm Calm 1.2 mph1.9 kmh 29.91 in1012.9 mb - 0.00 in0.0 mm 0.00 in0.0 mm
03:00 PM 46.1°F7.8°C 36.1°F2.3°C 68% 2.3 mph N3.7 kmh N 3.5 mph5.6 kmh 29.92 in1013.2 mb - 0.00 in0.0 mm 0.00 in0.0 mm
02:50 PM 46.1°F7.8°C 36.9°F2.7°C 70% 1.2 mph N1.9 kmh N 2.3 mph3.7 kmh 29.92 in1013.2 mb - 0.00 in0.0 mm 0.00 in0.0 mm
02:40 PM 46.7°F8.2°C 36.3°F2.4°C 67% 2.3 mph N3.7 kmh N 3.5 mph5.6 kmh 29.92 in1013.2 mb - 0.00 in0.0 mm 0.00 in0.0 mm
02:30 PM 46.8°F8.2°C 37.2°F2.9°C 69% 1.2 mph NNE1.9 kmh NNE 3.5 mph5.6 kmh 29.92 in1013.2 mb - 0.00 in0.0 mm 0.00 in0.0 mm
02:20 PM 46.4°F8.0°C 37.8°F3.2°C 72% 1.2 mph NE1.9 kmh NE 3.5 mph5.6 kmh 29.93 in1013.5 mb - 0.00 in0.0 mm 0.00 in0.0 mm
02:10 PM 45.0°F7.2°C 35.1°F1.7°C 68% 2.3 mph N3.7 kmh N 3.5 mph5.6 kmh 29.93 in1013.5 mb - 0.00 in0.0 mm 0.00 in0.0 mm
02:00 PM 44.6°F7.0°C 35.1°F1.7°C 69% 2.3 mph NNW3.7 kmh NNW 3.5 mph5.6 kmh 29.94 in1013.9 mb - 0.00 in0.0 mm 0.00 in0.0 mm
01:50 PM 44.9°F7.2°C 35.3°F1.8°C 69% 3.5 mph N5.6 kmh N 3.5 mph5.6 kmh 29.94 in1013.9 mb - 0.00 in0.0 mm 0.00 in0.0 mm
01:40 PM 45.3°F7.4°C 35.4°F1.9°C 68% 2.3 mph N3.7 kmh N 3.5 mph5.6 kmh 29.94 in1013.9 mb - 0.00 in0.0 mm 0.00 in0.0 mm
01:30 PM 44.7°F7.1°C 36.2°F2.3°C 72% 1.2 mph N1.9 kmh N 3.5 mph5.6 kmh 29.95 in1014.2 mb - 0.00 in0.0 mm 0.00 in0.0 mm
01:20 PM 44.8°F7.1°C 35.2°F1.8°C 69% 2.3 mph N3.7 kmh N 3.5 mph5.6 kmh 29.95 in1014.2 mb - 0.00 in0.0 mm 0.00 in0.0 mm
01:10 PM 45.1°F7.3°C 35.9°F2.2°C 70% 2.3 mph NNE3.7 kmh NNE 3.5 mph5.6 kmh 29.95 in1014.2 mb - 0.00 in0.0 mm 0.00 in0.0 mm
01:00 PM 45.2°F7.3°C 37.7°F3.2°C 75% 3.5 mph ENE5.6 kmh ENE 3.5 mph5.6 kmh 29.96 in1014.6 mb - 0.00 in0.0 mm 0.00 in0.0 mm
12:50 PM 45.5°F7.5°C 37.0°F2.8°C 72% 3.5 mph NE5.6 kmh NE 4.6 mph7.4 kmh 29.96 in1014.6 mb - 0.00 in0.0 mm 0.00 in0.0 mm
12:40 PM 45.5°F7.5°C 38.0°F3.3°C 75% 2.3 mph NE3.7 kmh NE 3.5 mph5.6 kmh 29.97 in1014.9 mb - 0.00 in0.0 mm 0.00 in0.0 mm
12:30 PM 44.9°F7.2°C 37.8°F3.2°C 76% 2.3 mph N3.7 kmh N 3.5 mph5.6 kmh 29.97 in1014.9 mb - 0.00 in0.0 mm 0.00 in0.0 mm
12:20 PM 45.0°F7.2°C 36.5°F2.5°C 72% 2.3 mph NE3.7 kmh NE 2.3 mph3.7 kmh 29.97 in1014.9 mb - 0.00 in0.0 mm 0.00 in0.0 mm
12:10 PM 45.4°F7.4°C 35.8°F2.1°C 69% 2.3 mph NE3.7 kmh NE 3.5 mph5.6 kmh 29.98 in1015.2 mb - 0.00 in0.0 mm 0.00 in0.0 mm
12:00 PM 46.6°F8.1°C 37.0°F2.8°C 69% 1.2 mph N1.9 kmh N 2.3 mph3.7 kmh 29.98 in1015.2 mb - 0.00 in0.0 mm 0.00 in0.0 mm
11:50 AM 47.4°F8.6°C 34.2°F1.2°C 60% 4.6 mph N7.4 kmh N 4.6 mph7.4 kmh 29.98 in1015.2 mb - 0.00 in0.0 mm 0.00 in0.0 mm
11:40 AM 46.7°F8.2°C 33.9°F1.1°C 61% 1.2 mph NNW1.9 kmh NNW 3.5 mph5.6 kmh 29.98 in1015.2 mb - 0.00 in0.0 mm 0.00 in0.0 mm
11:30 AM 45.9°F7.7°C 33.6°F0.9°C 62% 2.3 mph NNW3.7 kmh NNW 3.5 mph5.6 kmh 29.99 in1015.6 mb - 0.00 in0.0 mm 0.00 in0.0 mm
11:20 AM 45.5°F7.5°C 34.0°F1.1°C 64% 2.3 mph NNW3.7 kmh NNW 3.5 mph5.6 kmh 29.99 in1015.6 mb - 0.00 in0.0 mm 0.00 in0.0 mm
11:10 AM 45.6°F7.6°C 35.3°F1.8°C 67% 1.2 mph NNW1.9 kmh NNW 2.3 mph3.7 kmh 30.00 in1015.9 mb - 0.00 in0.0 mm 0.00 in0.0 mm
11:00 AM 45.2°F7.3°C 36.0°F2.2°C 70% Calm Calm 2.3 mph3.7 kmh 30.00 in1015.9 mb - 0.00 in0.0 mm 0.00 in0.0 mm
10:50 AM 44.4°F6.9°C 36.0°F2.2°C 72% 1.2 mph N1.9 kmh N 2.3 mph3.7 kmh 30.01 in1016.3 mb - 0.00 in0.0 mm 0.00 in0.0 mm
10:40 AM 43.6°F6.4°C 36.2°F2.3°C 75% 1.2 mph WNW1.9 kmh WNW 2.3 mph3.7 kmh 30.01 in1016.3 mb - 0.00 in0.0 mm 0.00 in0.0 mm
10:30 AM 42.5°F5.8°C 35.8°F2.1°C 77% Calm Calm 1.2 mph1.9 kmh 30.01 in1016.3 mb - 0.00 in0.0 mm 0.00 in0.0 mm
10:20 AM 41.9°F5.5°C 34.9°F1.6°C 76% 1.2 mph WNW1.9 kmh WNW 2.3 mph3.7 kmh 30.01 in1016.3 mb - 0.00 in0.0 mm 0.00 in0.0 mm
10:10 AM 41.5°F5.3°C 34.2°F1.2°C 75% 1.2 mph NNW1.9 kmh NNW 2.3 mph3.7 kmh 30.02 in1016.6 mb - 0.00 in0.0 mm 0.00 in0.0 mm
10:00 AM 41.5°F5.3°C 34.2°F1.2°C 75% 1.2 mph NW1.9 kmh NW 2.3 mph3.7 kmh 30.02 in1016.6 mb - 0.00 in0.0 mm 0.00 in0.0 mm
09:50 AM 40.8°F4.9°C 34.5°F1.4°C 78% 1.2 mph W1.9 kmh W 3.5 mph5.6 kmh 30.02 in1016.6 mb - 0.00 in0.0 mm 0.00 in0.0 mm
09:40 AM 40.4°F4.7°C 34.4°F1.3°C 79% 1.2 mph WSW1.9 kmh WSW 3.5 mph5.6 kmh 30.02 in1016.6 mb - 0.00 in0.0 mm 0.00 in0.0 mm
09:30 AM 39.9°F4.4°C 34.2°F1.2°C 80% 1.2 mph WNW1.9 kmh WNW 3.5 mph5.6 kmh 30.01 in1016.3 mb - 0.00 in0.0 mm 0.00 in0.0 mm
09:20 AM 39.1°F3.9°C 34.4°F1.3°C 83% 1.2 mph WNW1.9 kmh WNW 1.2 mph1.9 kmh 30.02 in1016.6 mb - 0.00 in0.0 mm 0.00 in0.0 mm
09:10 AM 38.1°F3.4°C 34.5°F1.4°C 87% Calm Calm 1.2 mph1.9 kmh 30.02 in1016.6 mb - 0.00 in0.0 mm 0.00 in0.0 mm
09:00 AM 37.0°F2.8°C 33.5°F0.8°C 87% Calm Calm -- 30.02 in1016.6 mb - 0.00 in0.0 mm 0.00 in0.0 mm
08:50 AM 36.0°F2.2°C 33.6°F0.9°C 91% 1.2 mph W1.9 kmh W 2.3 mph3.7 kmh 30.02 in1016.6 mb - 0.00 in0.0 mm 0.00 in0.0 mm
08:40 AM 34.9°F1.6°C 33.7°F0.9°C 95% 1.2 mph W1.9 kmh W 2.3 mph3.7 kmh 30.02 in1016.6 mb - 0.00 in0.0 mm 0.00 in0.0 mm
08:30 AM 33.9°F1.1°C 32.9°F0.5°C 96% 1.2 mph SW1.9 kmh SW 3.5 mph5.6 kmh 30.01 in1016.3 mb - 0.00 in0.0 mm 0.00 in0.0 mm
08:20 AM 33.0°F0.6°C 31.9°F-0.1°C 96% Calm Calm 1.2 mph1.9 kmh 30.01 in1016.3 mb - 0.00 in0.0 mm 0.00 in0.0 mm
08:10 AM 32.0°F0.0°C 31.0°F-0.6°C 96% 1.2 mph WSW1.9 kmh WSW 2.3 mph3.7 kmh 30.00 in1015.9 mb - 0.00 in0.0 mm 0.00 in0.0 mm
08:00 AM 31.2°F-0.4°C 30.2°F-1.0°C 96% Calm Calm 2.3 mph3.7 kmh 30.00 in1015.9 mb - 0.00 in0.0 mm 0.00 in0.0 mm
07:50 AM 30.6°F-0.8°C 29.6°F-1.3°C 96% Calm Calm 1.2 mph1.9 kmh 30.00 in1015.9 mb - 0.00 in0.0 mm 0.00 in0.0 mm
07:40 AM 30.2°F-1.0°C 28.9°F-1.7°C 95% Calm Calm -- 30.00 in1015.9 mb - 0.00 in0.0 mm 0.00 in0.0 mm
07:30 AM 30.0°F-1.1°C 28.7°F-1.8°C 95% Calm Calm 1.2 mph1.9 kmh 29.99 in1015.6 mb - 0.00 in0.0 mm 0.00 in0.0 mm
07:20 AM 29.9°F-1.2°C 28.6°F-1.9°C 95% Calm Calm 1.2 mph1.9 kmh 29.99 in1015.6 mb - 0.00 in0.0 mm 0.00 in0.0 mm
07:10 AM 29.7°F-1.3°C 28.4°F-2.0°C 95% Calm Calm 1.2 mph1.9 kmh 29.99 in1015.6 mb - 0.00 in0.0 mm 0.00 in0.0 mm
07:00 AM 29.7°F-1.3°C 28.4°F-2.0°C 95% 1.2 mph SW1.9 kmh SW 1.2 mph1.9 kmh 29.99 in1015.6 mb - 0.00 in0.0 mm 0.00 in0.0 mm
06:50 AM 29.7°F-1.3°C 28.4°F-2.0°C 95% Calm Calm 2.3 mph3.7 kmh 29.99 in1015.6 mb - 0.00 in0.0 mm 0.00 in0.0 mm
06:40 AM 29.7°F-1.3°C 28.4°F-2.0°C 95% Calm Calm 1.2 mph1.9 kmh 29.99 in1015.6 mb - 0.00 in0.0 mm 0.00 in0.0 mm
06:30 AM 29.7°F-1.3°C 28.4°F-2.0°C 95% Calm Calm 1.2 mph1.9 kmh 29.99 in1015.6 mb - 0.00 in0.0 mm 0.00 in0.0 mm
06:20 AM 29.7°F-1.3°C 28.4°F-2.0°C 95% Calm Calm 1.2 mph1.9 kmh 29.98 in1015.2 mb - 0.00 in0.0 mm 0.00 in0.0 mm
06:10 AM 29.7°F-1.3°C 28.4°F-2.0°C 95% Calm Calm 1.2 mph1.9 kmh 29.99 in1015.6 mb - 0.00 in0.0 mm 0.00 in0.0 mm
06:00 AM 29.7°F-1.3°C 28.4°F-2.0°C 95% Calm Calm 1.2 mph1.9 kmh 29.99 in1015.6 mb - 0.00 in0.0 mm 0.00 in0.0 mm
05:50 AM 29.8°F-1.2°C 28.3°F-2.1°C 94% 1.2 mph SW1.9 kmh SW 1.2 mph1.9 kmh 29.99 in1015.6 mb - 0.00 in0.0 mm 0.00 in0.0 mm
05:40 AM 29.9°F-1.2°C 28.4°F-2.0°C 94% 1.2 mph SW1.9 kmh SW 1.2 mph1.9 kmh 29.99 in1015.6 mb - 0.00 in0.0 mm 0.00 in0.0 mm
05:30 AM 30.1°F-1.1°C 28.6°F-1.9°C 94% 1.2 mph SW1.9 kmh SW 1.2 mph1.9 kmh 29.99 in1015.6 mb - 0.00 in0.0 mm 0.00 in0.0 mm
05:20 AM 30.4°F-0.9°C 28.9°F-1.7°C 94% 1.2 mph SW1.9 kmh SW 1.2 mph1.9 kmh 29.99 in1015.6 mb - 0.00 in0.0 mm 0.00 in0.0 mm
05:10 AM 30.7°F-0.7°C 29.1°F-1.6°C 94% 1.2 mph SW1.9 kmh SW 1.2 mph1.9 kmh 29.99 in1015.6 mb - 0.00 in0.0 mm 0.00 in0.0 mm
05:00 AM 31.0°F-0.6°C 29.2°F-1.6°C 93% 1.2 mph SW1.9 kmh SW 2.3 mph3.7 kmh 29.99 in1015.6 mb - 0.00 in0.0 mm 0.00 in0.0 mm
04:50 AM 31.5°F-0.3°C 29.7°F-1.3°C 93% 1.2 mph SW1.9 kmh SW 2.3 mph3.7 kmh 29.98 in1015.2 mb - 0.00 in0.0 mm 0.00 in0.0 mm
04:40 AM 32.0°F0.0°C 30.5°F-0.8°C 94% 1.2 mph SW1.9 kmh SW 2.3 mph3.7 kmh 29.99 in1015.6 mb - 0.00 in0.0 mm 0.00 in0.0 mm
04:30 AM 32.4°F0.2°C 31.2°F-0.4°C 95% 1.2 mph NNW1.9 kmh NNW 2.3 mph3.7 kmh 29.99 in1015.6 mb - 0.00 in0.0 mm 0.00 in0.0 mm
04:20 AM 32.1°F0.1°C 30.8°F-0.7°C 95% 1.2 mph NNW1.9 kmh NNW 2.3 mph3.7 kmh 29.99 in1015.6 mb - 0.00 in0.0 mm 0.00 in0.0 mm
04:10 AM 31.9°F-0.1°C 30.6°F-0.8°C 95% Calm Calm 1.2 mph1.9 kmh 29.99 in1015.6 mb - 0.00 in0.0 mm 0.00 in0.0 mm
04:00 AM 31.7°F-0.2°C 30.4°F-0.9°C 95% Calm Calm -- 29.98 in1015.2 mb - 0.00 in0.0 mm 0.00 in0.0 mm
03:50 AM 31.8°F-0.1°C 30.5°F-0.8°C 95% Calm Calm 2.3 mph3.7 kmh 29.98 in1015.2 mb - 0.00 in0.0 mm 0.00 in0.0 mm
03:40 AM 31.9°F-0.1°C 30.6°F-0.8°C 95% Calm Calm -- 29.98 in1015.2 mb - 0.00 in0.0 mm 0.00 in0.0 mm
03:30 AM 31.7°F-0.2°C 30.2°F-1.0°C 94% 1.2 mph SSW1.9 kmh SSW 2.3 mph3.7 kmh 29.99 in1015.6 mb - 0.00 in0.0 mm 0.00 in0.0 mm
03:20 AM 31.9°F-0.1°C 30.4°F-0.9°C 94% Calm Calm 1.2 mph1.9 kmh 29.99 in1015.6 mb - 0.00 in0.0 mm 0.00 in0.0 mm
03:10 AM 32.0°F0.0°C 30.5°F-0.8°C 94% 1.2 mph SW1.9 kmh SW 2.3 mph3.7 kmh 29.99 in1015.6 mb - 0.00 in0.0 mm 0.00 in0.0 mm
03:00 AM 32.2°F0.1°C 30.7°F-0.7°C 94% Calm Calm 1.2 mph1.9 kmh 29.99 in1015.6 mb - 0.00 in0.0 mm 0.00 in0.0 mm
02:50 AM 32.6°F0.3°C 31.0°F-0.6°C 94% Calm Calm 1.2 mph1.9 kmh 29.99 in1015.6 mb - 0.00 in0.0 mm 0.00 in0.0 mm
02:40 AM 33.0°F0.6°C 31.4°F-0.3°C 94% 1.2 mph SW1.9 kmh SW 3.5 mph5.6 kmh 29.99 in1015.6 mb - 0.00 in0.0 mm 0.00 in0.0 mm
02:30 AM 33.2°F0.7°C 31.7°F-0.2°C 94% Calm Calm 1.2 mph1.9 kmh 29.99 in1015.6 mb - 0.00 in0.0 mm 0.00 in0.0 mm
02:20 AM 33.4°F0.8°C 31.6°F-0.2°C 93% Calm Calm 1.2 mph1.9 kmh 29.99 in1015.6 mb - 0.00 in0.0 mm 0.00 in0.0 mm
02:10 AM 33.8°F1.0°C 32.0°F0.0°C 93% 1.2 mph WSW1.9 kmh WSW 2.3 mph3.7 kmh 30.00 in1015.9 mb - 0.00 in0.0 mm 0.00 in0.0 mm
02:00 AM 34.3°F1.3°C 32.5°F0.3°C 93% 1.2 mph SW1.9 kmh SW 2.3 mph3.7 kmh 30.00 in1015.9 mb - 0.00 in0.0 mm 0.00 in0.0 mm
01:50 AM 34.7°F1.5°C 33.1°F0.6°C 94% 1.2 mph SW1.9 kmh SW 2.3 mph3.7 kmh 30.00 in1015.9 mb - 0.00 in0.0 mm 0.00 in0.0 mm
01:40 AM 35.0°F1.7°C 33.4°F0.8°C 94% Calm Calm 1.2 mph1.9 kmh 30.00 in1015.9 mb - 0.00 in0.0 mm 0.00 in0.0 mm
01:30 AM 35.0°F1.7°C 33.7°F0.9°C 95% 1.2 mph SW1.9 kmh SW 3.5 mph5.6 kmh 30.00 in1015.9 mb - 0.00 in0.0 mm 0.00 in0.0 mm
01:20 AM 34.6°F1.4°C 33.3°F0.7°C 95% Calm Calm 1.2 mph1.9 kmh 30.00 in1015.9 mb - 0.00 in0.0 mm 0.00 in0.0 mm
01:10 AM 34.3°F1.3°C 33.0°F0.6°C 95% Calm Calm 1.2 mph1.9 kmh 30.00 in1015.9 mb - 0.00 in0.0 mm 0.00 in0.0 mm
01:00 AM 34.1°F1.2°C 32.6°F0.3°C 94% Calm Calm 1.2 mph1.9 kmh 30.00 in1015.9 mb - 0.00 in0.0 mm 0.00 in0.0 mm
12:50 AM 33.9°F1.1°C 32.1°F0.1°C 93% Calm Calm 4.6 mph7.4 kmh 30.00 in1015.9 mb - 0.00 in0.0 mm 0.00 in0.0 mm
12:40 AM 34.0°F1.1°C 32.2°F0.1°C 93% Calm Calm -- 30.00 in1015.9 mb - 0.00 in0.0 mm 0.00 in0.0 mm
12:30 AM 34.3°F1.3°C 32.5°F0.3°C 93% Calm Calm -- 30.00 in1015.9 mb - 0.00 in0.0 mm 0.00 in0.0 mm
12:20 AM 34.7°F1.5°C 32.6°F0.3°C 92% Calm Calm -- 30.00 in1015.9 mb - 0.00 in0.0 mm 0.00 in0.0 mm
12:10 AM 35.1°F1.7°C 32.7°F0.4°C 91% Calm Calm -- 29.99 in1015.6 mb - 0.00 in0.0 mm 0.00 in0.0 mm
12:00 AM 35.7°F2.1°C 33.1°F0.6°C 90% Calm Calm -- 30.00 in1015.9 mb - 0.00 in0.0 mm 0.00 in0.0 mm